Laporte City, Iowa
Current Conditions -  °F | °C
As of 9:55 AM on Friday 31 Oct 2014 (Local Time) from KVTI Reporting Station
Clear Clear  
Wind Chill: 22°   Ceiling: Unl
Heat Index: 34°   Visibility: 10mi
Dew Point: 20°   Wind: 22mph
Humidity: 59%   Direction: 360°N
Pressure: 30.42"   Gusts: 28mph
Location:  42.3312°N, 92.2426°W
Report Text: KVTI 311455Z AUTO 36019G24KT 10SM CLR 01/M06 A3042 RMK AO2 T00091064
Loading
Personal Weather Stations






























Interactive Weather Map
Tropical Storm Tracking
New forecast layout! Learn more

10-Day Weather Forecast

Advertisements
Track Severe Weather on mobile